createdAt,value
2023-05-08T00:00:29.684Z,1016.76
2023-05-08T00:01:29.736Z,1016.79
2023-05-08T00:02:29.771Z,1016.79
2023-05-08T00:03:29.881Z,1016.82
2023-05-08T00:04:29.678Z,1016.83
2023-05-08T00:05:29.651Z,1016.84
2023-05-08T00:06:29.635Z,1016.72
2023-05-08T00:07:29.626Z,1016.77
2023-05-08T00:08:29.570Z,1016.78
2023-05-08T00:09:29.605Z,1016.75
2023-05-08T00:10:29.561Z,1016.80
2023-05-08T00:11:29.622Z,1016.79
2023-05-08T00:12:29.582Z,1016.80
2023-05-08T00:13:29.552Z,1016.82
2023-05-08T00:14:29.535Z,1016.83
2023-05-08T00:15:29.518Z,1016.81
2023-05-08T00:16:29.507Z,1016.85
2023-05-08T00:17:29.505Z,1016.83
2023-05-08T00:18:29.442Z,1016.80
2023-05-08T00:19:29.452Z,1016.82
2023-05-08T00:20:29.442Z,1016.86
2023-05-08T00:21:29.411Z,1016.80
2023-05-08T00:22:29.445Z,1016.81
2023-05-08T00:23:29.438Z,1016.87
2023-05-08T00:24:29.410Z,1016.88
2023-05-08T00:25:29.407Z,1016.77
2023-05-08T00:26:29.376Z,1016.86
2023-05-08T00:27:29.377Z,1016.89
2023-05-08T00:28:29.338Z,1016.90
2023-05-08T00:29:29.365Z,1016.89
2023-05-08T00:30:29.330Z,1016.88
2023-05-08T00:31:29.357Z,1016.90
2023-05-08T00:32:29.384Z,1016.90
2023-05-08T00:33:29.275Z,1016.93
2023-05-08T00:34:29.320Z,1016.91
2023-05-08T00:35:29.221Z,1016.95
2023-05-08T00:36:29.198Z,1017.03
2023-05-08T00:37:29.252Z,1016.98
2023-05-08T00:38:29.200Z,1016.97
2023-05-08T00:39:29.219Z,1016.98
2023-05-08T00:40:29.211Z,1017.00
2023-05-08T00:41:29.169Z,1017.02
2023-05-08T00:42:29.123Z,1016.98
2023-05-08T00:43:29.149Z,1016.89
2023-05-08T00:44:29.134Z,1016.98
2023-05-08T00:45:29.105Z,1016.95
2023-05-08T00:46:29.108Z,1016.94
2023-05-08T00:47:29.101Z,1017.00
2023-05-08T00:48:29.065Z,1016.92
2023-05-08T00:49:29.045Z,1016.97
2023-05-08T00:50:29.035Z,1016.94
2023-05-08T00:51:29.047Z,1016.94
2023-05-08T00:52:28.997Z,1017.02
2023-05-08T00:53:29.013Z,1016.96
2023-05-08T00:54:28.972Z,1017.03
2023-05-08T00:55:28.995Z,1016.99
2023-05-08T00:56:28.966Z,1016.95
2023-05-08T00:57:28.985Z,1016.96
2023-05-08T00:58:28.938Z,1017.02
2023-05-08T00:59:28.935Z,1016.97
2023-05-08T01:00:28.936Z,1017.00
2023-05-08T01:01:28.947Z,1016.99
2023-05-08T01:02:28.957Z,1016.99
2023-05-08T01:03:29.004Z,1017.03
2023-05-08T01:04:28.836Z,1017.01
2023-05-08T01:05:28.852Z,1017.05
2023-05-08T01:06:28.809Z,1017.07
2023-05-08T01:07:28.857Z,1017.03
2023-05-08T01:08:28.823Z,1017.05
2023-05-08T01:09:28.830Z,1017.05
2023-05-08T01:10:28.774Z,1017.02
2023-05-08T01:11:28.793Z,1017.02
2023-05-08T01:12:28.783Z,1017.01
2023-05-08T01:13:28.750Z,1017.08
2023-05-08T01:14:28.711Z,1017.04
2023-05-08T01:15:28.756Z,1017.11
2023-05-08T01:16:28.784Z,1017.04
2023-05-08T01:17:28.829Z,1017.15
2023-05-08T01:18:28.672Z,1017.05
2023-05-08T01:19:28.679Z,1017.06
2023-05-08T01:20:28.655Z,1017.09
2023-05-08T01:21:28.671Z,1017.08
2023-05-08T01:22:28.603Z,1017.07
2023-05-08T01:23:28.641Z,1017.08
2023-05-08T01:24:28.592Z,1017.04
2023-05-08T01:25:28.602Z,1017.06
2023-05-08T01:26:28.549Z,1016.99
2023-05-08T01:27:28.565Z,1017.02
2023-05-08T01:28:28.548Z,1017.05
2023-05-08T01:29:28.514Z,1017.04
2023-05-08T01:30:28.549Z,1017.07
2023-05-08T01:31:28.486Z,1017.06
2023-05-08T01:32:28.490Z,1017.08
2023-05-08T01:33:28.531Z,1017.08
2023-05-08T01:34:28.485Z,1017.08
2023-05-08T01:35:28.551Z,1017.08
2023-05-08T01:36:28.413Z,1017.10
2023-05-08T01:37:28.403Z,1017.08
2023-05-08T01:38:28.402Z,1017.13
2023-05-08T01:39:28.418Z,1017.12
2023-05-08T01:40:28.365Z,1017.08
2023-05-08T01:41:28.399Z,1017.13
2023-05-08T01:42:28.362Z,1017.16
2023-05-08T01:43:28.340Z,1017.16
2023-05-08T01:44:28.335Z,1017.16
2023-05-08T01:45:28.320Z,1017.13
2023-05-08T01:46:28.395Z,1017.15
2023-05-08T01:47:28.303Z,1017.15
2023-05-08T01:48:28.286Z,1017.11
2023-05-08T01:49:28.256Z,1017.14
2023-05-08T01:50:28.219Z,1017.14
2023-05-08T01:51:28.258Z,1017.18
2023-05-08T01:52:28.247Z,1017.14
2023-05-08T01:53:28.248Z,1017.18
2023-05-08T01:54:28.212Z,1017.16
2023-05-08T01:55:28.180Z,1017.18
2023-05-08T01:56:28.159Z,1017.18
2023-05-08T01:57:28.163Z,1017.23
2023-05-08T01:58:28.181Z,1017.20
2023-05-08T01:59:28.144Z,1017.27
2023-05-08T02:00:28.114Z,1017.26
2023-05-08T02:01:28.140Z,1017.28
2023-05-08T02:02:28.152Z,1017.28
2023-05-08T02:03:28.171Z,1017.25
2023-05-08T02:04:28.139Z,1017.26
2023-05-08T02:05:28.095Z,1017.28
2023-05-08T02:06:28.065Z,1017.31
2023-05-08T02:07:28.027Z,1017.33
2023-05-08T02:08:28.003Z,1017.29
2023-05-08T02:09:28.029Z,1017.30
2023-05-08T02:10:28.002Z,1017.31
2023-05-08T02:11:28.008Z,1017.35
2023-05-08T02:12:27.945Z,1017.35
2023-05-08T02:13:27.995Z,1017.32
2023-05-08T02:14:27.918Z,1017.37
2023-05-08T02:15:27.997Z,1017.32
2023-05-08T02:16:27.962Z,1017.34
2023-05-08T02:17:27.896Z,1017.36
2023-05-08T02:18:27.916Z,1017.35
2023-05-08T02:19:27.859Z,1017.33
2023-05-08T02:20:27.851Z,1017.31
2023-05-08T02:21:27.850Z,1017.35
2023-05-08T02:22:27.831Z,1017.34
2023-05-08T02:23:27.846Z,1017.37
2023-05-08T02:24:27.827Z,1017.31
2023-05-08T02:25:27.802Z,1017.37
2023-05-08T02:26:27.825Z,1017.27
2023-05-08T02:27:27.793Z,1017.34
2023-05-08T02:28:27.787Z,1017.28
2023-05-08T02:29:27.738Z,1017.33
2023-05-08T02:30:27.747Z,1017.37
2023-05-08T02:31:27.773Z,1017.37
2023-05-08T02:32:27.757Z,1017.38
2023-05-08T02:33:27.676Z,1017.39
2023-05-08T02:34:27.686Z,1017.35
2023-05-08T02:35:27.782Z,1017.41
2023-05-08T02:36:27.668Z,1017.42
2023-05-08T02:37:27.631Z,1017.41
2023-05-08T02:38:27.634Z,1017.44
2023-05-08T02:39:27.624Z,1017.42
2023-05-08T02:40:27.599Z,1017.44
2023-05-08T02:41:27.689Z,1017.47
2023-05-08T02:42:27.587Z,1017.52
2023-05-08T02:43:27.595Z,1017.47
2023-05-08T02:44:27.559Z,1017.51
2023-05-08T02:45:27.585Z,1017.52
2023-05-08T02:46:27.548Z,1017.54
2023-05-08T02:47:27.560Z,1017.47
2023-05-08T02:48:27.526Z,1017.53
2023-05-08T02:49:27.540Z,1017.54
2023-05-08T02:50:27.468Z,1017.48
2023-05-08T02:51:27.485Z,1017.49
2023-05-08T02:52:27.449Z,1017.52
2023-05-08T02:53:27.498Z,1017.53
2023-05-08T02:54:27.440Z,1017.46
2023-05-08T02:55:27.425Z,1017.49
2023-05-08T02:56:27.389Z,1017.48
2023-05-08T02:57:27.396Z,1017.49
2023-05-08T02:58:27.335Z,1017.47
2023-05-08T02:59:27.364Z,1017.45
2023-05-08T03:00:27.355Z,1017.44
2023-05-08T03:01:27.393Z,1017.47
2023-05-08T03:02:27.380Z,1017.41
2023-05-08T03:03:27.498Z,1017.44
2023-05-08T03:04:27.269Z,1017.48
2023-05-08T03:05:27.284Z,1017.40
2023-05-08T03:06:27.268Z,1017.46
2023-05-08T03:07:27.274Z,1017.47
2023-05-08T03:08:27.260Z,1017.43
2023-05-08T03:09:27.247Z,1017.41
2023-05-08T03:10:27.221Z,1017.40
2023-05-08T03:11:27.202Z,1017.45
2023-05-08T03:12:27.165Z,1017.45
2023-05-08T03:13:27.394Z,1017.42
2023-05-08T03:14:27.172Z,1017.39
2023-05-08T03:15:27.194Z,1017.42
2023-05-08T03:16:27.241Z,1017.35
2023-05-08T03:17:27.094Z,1017.43
2023-05-08T03:18:27.126Z,1017.35
2023-05-08T03:19:27.143Z,1017.45
2023-05-08T03:20:27.121Z,1017.38
2023-05-08T03:21:27.088Z,1017.41
2023-05-08T03:22:27.041Z,1017.43
2023-05-08T03:23:27.024Z,1017.40
2023-05-08T03:24:27.054Z,1017.38
2023-05-08T03:25:27.019Z,1017.40
2023-05-08T03:26:26.996Z,1017.45
2023-05-08T03:27:26.991Z,1017.40
2023-05-08T03:28:26.959Z,1017.41
2023-05-08T03:29:26.975Z,1017.39
2023-05-08T03:30:26.926Z,1017.41
2023-05-08T03:31:27.036Z,1017.37
2023-05-08T03:32:26.986Z,1017.41
2023-05-08T03:33:26.994Z,1017.35
2023-05-08T03:34:26.901Z,1017.42
2023-05-08T03:35:26.898Z,1017.32
2023-05-08T03:36:26.913Z,1017.34
2023-05-08T03:37:26.859Z,1017.32
2023-05-08T03:38:26.843Z,1017.34
2023-05-08T03:39:26.855Z,1017.37
2023-05-08T03:40:26.852Z,1017.31
2023-05-08T03:41:26.787Z,1017.34
2023-05-08T03:42:26.808Z,1017.36
2023-05-08T03:43:26.771Z,1017.36
2023-05-08T03:44:26.764Z,1017.35
2023-05-08T03:45:26.746Z,1017.34
2023-05-08T03:46:26.808Z,1017.34
2023-05-08T03:47:26.707Z,1017.32
2023-05-08T03:48:26.729Z,1017.31
2023-05-08T03:49:26.713Z,1017.27
2023-05-08T03:50:26.736Z,1017.30
2023-05-08T03:51:26.686Z,1017.31
2023-05-08T03:52:26.816Z,1017.25
2023-05-08T03:53:26.763Z,1017.29
2023-05-08T03:54:26.672Z,1017.31
2023-05-08T03:55:26.603Z,1017.27
2023-05-08T03:56:26.636Z,1017.35
2023-05-08T03:57:26.618Z,1017.32
2023-05-08T03:58:26.572Z,1017.31
2023-05-08T03:59:26.555Z,1017.30
2023-05-08T04:00:26.602Z,1017.25
2023-05-08T04:01:26.545Z,1017.32
2023-05-08T04:02:26.617Z,1017.26
2023-05-08T04:03:26.660Z,1017.34
2023-05-08T04:04:26.504Z,1017.31
2023-05-08T04:05:26.537Z,1017.27
2023-05-08T04:06:28.744Z,1017.31
2023-05-08T04:07:26.459Z,1017.32
2023-05-08T04:08:26.469Z,1017.34
2023-05-08T04:09:26.470Z,1017.31
2023-05-08T04:10:26.460Z,1017.31
2023-05-08T04:11:26.455Z,1017.30
2023-05-08T04:12:26.429Z,1017.32
2023-05-08T04:13:26.434Z,1017.32
2023-05-08T04:14:26.382Z,1017.29
2023-05-08T04:15:26.394Z,1017.32
2023-05-08T04:16:26.403Z,1017.34
2023-05-08T04:17:26.431Z,1017.38
2023-05-08T04:18:26.322Z,1017.33
2023-05-08T04:19:26.313Z,1017.32
2023-05-08T04:20:26.328Z,1017.38
2023-05-08T04:21:26.273Z,1017.37
2023-05-08T04:22:26.281Z,1017.40
2023-05-08T04:23:26.277Z,1017.49
2023-05-08T04:24:26.284Z,1017.45
2023-05-08T04:25:26.249Z,1017.43
2023-05-08T04:26:26.231Z,1017.40
2023-05-08T04:27:26.237Z,1017.47
2023-05-08T04:28:26.196Z,1017.49
2023-05-08T04:29:26.168Z,1017.46
2023-05-08T04:30:26.204Z,1017.47
2023-05-08T04:31:26.196Z,1017.45
2023-05-08T04:32:26.248Z,1017.44
2023-05-08T04:33:26.174Z,1017.48
2023-05-08T04:34:26.111Z,1017.50
2023-05-08T04:35:26.088Z,1017.47
2023-05-08T04:36:26.110Z,1017.51
2023-05-08T04:37:26.100Z,1017.52
2023-05-08T04:38:26.112Z,1017.58
2023-05-08T04:39:26.037Z,1017.51
2023-05-08T04:40:26.045Z,1017.59
2023-05-08T04:41:26.094Z,1017.52
2023-05-08T04:42:26.063Z,1017.55
2023-05-08T04:43:26.022Z,1017.63
2023-05-08T04:44:25.981Z,1017.54
2023-05-08T04:45:26.006Z,1017.58
2023-05-08T04:46:26.017Z,1017.61
2023-05-08T04:47:26.015Z,1017.59
2023-05-08T04:48:25.959Z,1017.56
2023-05-08T04:49:25.965Z,1017.53
2023-05-08T04:50:25.989Z,1017.55
2023-05-08T04:51:25.888Z,1017.48
2023-05-08T04:52:25.925Z,1017.54
2023-05-08T04:53:25.884Z,1017.56
2023-05-08T04:54:25.864Z,1017.49
2023-05-08T04:55:25.856Z,1017.56
2023-05-08T04:56:25.843Z,1017.55
2023-05-08T04:57:25.858Z,1017.59
2023-05-08T04:58:25.910Z,1017.63
2023-05-08T04:59:25.815Z,1017.58
2023-05-08T05:00:25.841Z,1017.59
2023-05-08T05:01:25.783Z,1017.60
2023-05-08T05:02:25.843Z,1017.62
2023-05-08T05:03:25.800Z,1017.64
2023-05-08T05:04:25.763Z,1017.63
2023-05-08T05:05:25.738Z,1017.64
2023-05-08T05:06:25.734Z,1017.74
2023-05-08T05:07:25.692Z,1017.71
2023-05-08T05:08:25.669Z,1017.71
2023-05-08T05:09:25.688Z,1017.77
2023-05-08T05:10:25.665Z,1017.73
2023-05-08T05:11:25.655Z,1017.75
2023-05-08T05:12:25.647Z,1017.75
2023-05-08T05:13:25.703Z,1017.77
2023-05-08T05:14:25.640Z,1017.81
2023-05-08T05:15:25.626Z,1017.80
2023-05-08T05:16:25.629Z,1017.79
2023-05-08T05:17:25.560Z,1017.83
2023-05-08T05:18:25.542Z,1017.81
2023-05-08T05:19:25.546Z,1017.78
2023-05-08T05:20:25.645Z,1017.79
2023-05-08T05:21:25.503Z,1017.88
2023-05-08T05:22:25.523Z,1017.92
2023-05-08T05:23:25.465Z,1017.92
2023-05-08T05:24:25.526Z,1017.87
2023-05-08T05:25:25.483Z,1017.79
2023-05-08T05:26:25.473Z,1017.93
2023-05-08T05:27:25.423Z,1017.94
2023-05-08T05:28:25.428Z,1017.83
2023-05-08T05:29:25.404Z,1017.88
2023-05-08T05:30:25.420Z,1017.84
2023-05-08T05:31:25.380Z,1017.87
2023-05-08T05:32:25.354Z,1017.88
2023-05-08T05:33:25.336Z,1017.84
2023-05-08T05:34:25.345Z,1017.90
2023-05-08T05:35:25.747Z,1017.88
2023-05-08T05:36:25.318Z,1017.88
2023-05-08T05:37:25.276Z,1017.90
2023-05-08T05:38:25.300Z,1017.92
2023-05-08T05:39:25.266Z,1017.95
2023-05-08T05:40:25.263Z,1017.94
2023-05-08T05:41:25.257Z,1017.91
2023-05-08T05:42:25.219Z,1018.00
2023-05-08T05:43:25.230Z,1017.91
2023-05-08T05:44:25.194Z,1017.95
2023-05-08T05:45:25.187Z,1017.99
2023-05-08T05:46:25.210Z,1018.08
2023-05-08T05:47:25.183Z,1018.07
2023-05-08T05:48:25.155Z,1018.05
2023-05-08T05:49:25.136Z,1018.06
2023-05-08T05:50:25.864Z,1018.03
2023-05-08T05:51:25.118Z,1018.11
2023-05-08T05:52:25.088Z,1018.13
2023-05-08T05:53:25.256Z,1018.02
2023-05-08T05:54:25.067Z,1018.04
2023-05-08T05:55:25.047Z,1018.05
2023-05-08T05:56:25.056Z,1018.03
2023-05-08T05:57:25.017Z,1018.09
2023-05-08T05:58:25.004Z,1018.07
2023-05-08T05:59:25.032Z,1017.97
2023-05-08T06:00:25.007Z,1018.03
2023-05-08T06:01:24.956Z,1018.02
2023-05-08T06:02:25.051Z,1018.03
2023-05-08T06:03:25.050Z,1018.02
2023-05-08T06:04:25.007Z,1018.01
2023-05-08T06:05:24.919Z,1018.09
2023-05-08T06:06:24.955Z,1018.07
2023-05-08T06:07:24.882Z,1018.04
2023-05-08T06:08:24.910Z,1018.07
2023-05-08T06:09:24.866Z,1018.07
2023-05-08T06:10:24.849Z,1018.07
2023-05-08T06:11:24.975Z,1018.11
2023-05-08T06:12:24.847Z,1018.11
2023-05-08T06:13:24.967Z,1018.12
2023-05-08T06:14:24.796Z,1018.14
2023-05-08T06:15:24.802Z,1018.12
2023-05-08T06:16:24.877Z,1018.17
2023-05-08T06:17:24.805Z,1018.12
2023-05-08T06:18:24.785Z,1018.14
2023-05-08T06:19:24.739Z,1018.15
2023-05-08T06:20:26.327Z,1018.14
2023-05-08T06:21:24.708Z,1018.15
2023-05-08T06:22:24.792Z,1018.14
2023-05-08T06:23:24.684Z,1018.13
2023-05-08T06:24:24.670Z,1018.11
2023-05-08T06:25:24.719Z,1018.09
2023-05-08T06:26:24.659Z,1018.11
2023-05-08T06:27:24.664Z,1018.11
2023-05-08T06:28:24.621Z,1018.12
2023-05-08T06:29:24.629Z,1018.08
2023-05-08T06:30:24.596Z,1018.13
2023-05-08T06:31:24.591Z,1018.17
2023-05-08T06:32:24.648Z,1018.12
2023-05-08T06:33:26.776Z,1018.12
2023-05-08T06:34:24.537Z,1018.15
2023-05-08T06:35:24.581Z,1018.16
2023-05-08T06:36:24.522Z,1018.15
2023-05-08T06:37:24.487Z,1018.18
2023-05-08T06:38:24.548Z,1018.13
2023-05-08T06:39:24.481Z,1018.14
2023-05-08T06:40:24.467Z,1018.13
2023-05-08T06:41:24.461Z,1018.08
2023-05-08T06:42:24.455Z,1018.05
2023-05-08T06:43:24.459Z,1018.13
2023-05-08T06:44:24.463Z,1018.12
2023-05-08T06:45:24.452Z,1018.11
2023-05-08T06:46:24.503Z,1018.04
2023-05-08T06:47:24.415Z,1018.06
2023-05-08T06:48:24.403Z,1018.05
2023-05-08T06:49:24.368Z,1018.06
2023-05-08T06:50:24.368Z,1018.08
2023-05-08T06:51:24.304Z,1018.04
2023-05-08T06:52:24.303Z,1018.04
2023-05-08T06:53:24.312Z,1018.08
2023-05-08T06:54:24.301Z,1018.05
2023-05-08T06:55:24.379Z,1018.05
2023-05-08T06:56:24.354Z,1018.00
2023-05-08T06:57:24.277Z,1018.01
2023-05-08T06:58:24.302Z,1018.04
2023-05-08T06:59:24.254Z,1018.01
2023-05-08T07:00:24.227Z,1018.01
2023-05-08T07:01:24.276Z,1018.04
2023-05-08T07:02:24.245Z,1018.01
2023-05-08T07:03:24.186Z,1018.05
2023-05-08T07:04:24.216Z,1018.06
2023-05-08T07:05:24.150Z,1018.05
2023-05-08T07:06:24.157Z,1018.09
2023-05-08T07:07:24.163Z,1018.10
2023-05-08T07:08:24.144Z,1018.10
2023-05-08T07:09:24.107Z,1018.14
2023-05-08T07:10:24.104Z,1018.16
2023-05-08T07:11:24.139Z,1018.20
2023-05-08T07:12:24.094Z,1018.18
2023-05-08T07:13:24.103Z,1018.18
2023-05-08T07:14:24.042Z,1018.23
2023-05-08T07:15:26.366Z,1018.20
2023-05-08T07:16:24.041Z,1018.23
2023-05-08T07:17:24.028Z,1018.21
2023-05-08T07:18:23.982Z,1018.22
2023-05-08T07:19:23.958Z,1018.25
2023-05-08T07:20:24.867Z,1018.30
2023-05-08T07:21:23.999Z,1018.29
2023-05-08T07:22:23.945Z,1018.25
2023-05-08T07:23:23.990Z,1018.25
2023-05-08T07:24:23.904Z,1018.28
2023-05-08T07:25:23.945Z,1018.26
2023-05-08T07:26:23.860Z,1018.26
2023-05-08T07:27:23.867Z,1018.25
2023-05-08T07:28:23.863Z,1018.28
2023-05-08T07:29:23.836Z,1018.31
2023-05-08T07:30:23.828Z,1018.33
2023-05-08T07:31:23.866Z,1018.35
2023-05-08T07:32:23.848Z,1018.31
2023-05-08T07:33:23.812Z,1018.29
2023-05-08T07:34:23.807Z,1018.32
2023-05-08T07:35:23.774Z,1018.33
2023-05-08T07:36:23.764Z,1018.33
2023-05-08T07:37:23.733Z,1018.39
2023-05-08T07:38:23.703Z,1018.30
2023-05-08T07:39:23.726Z,1018.36
2023-05-08T07:40:23.738Z,1018.38
2023-05-08T07:41:24.392Z,1018.35
2023-05-08T07:42:23.675Z,1018.36
2023-05-08T07:43:23.697Z,1018.37
2023-05-08T07:44:23.640Z,1018.37
2023-05-08T07:45:23.641Z,1018.37
2023-05-08T07:46:23.628Z,1018.40
2023-05-08T07:47:23.583Z,1018.39
2023-05-08T07:48:23.594Z,1018.42
2023-05-08T07:49:23.557Z,1018.40
2023-05-08T07:50:23.671Z,1018.44
2023-05-08T07:51:23.598Z,1018.40
2023-05-08T07:52:23.552Z,1018.45
2023-05-08T07:53:23.542Z,1018.47
2023-05-08T07:54:23.489Z,1018.46
2023-05-08T07:55:23.522Z,1018.50
2023-05-08T07:56:23.488Z,1018.51
2023-05-08T07:57:23.473Z,1018.53
2023-05-08T07:58:24.020Z,1018.51
2023-05-08T07:59:23.451Z,1018.52
2023-05-08T08:00:23.492Z,1018.55
2023-05-08T08:01:23.458Z,1018.58
2023-05-08T08:02:23.517Z,1018.50
2023-05-08T08:03:23.521Z,1018.54
2023-05-08T08:04:23.386Z,1018.52
2023-05-08T08:05:23.403Z,1018.49
2023-05-08T08:06:23.368Z,1018.48
2023-05-08T08:07:23.337Z,1018.47
2023-05-08T08:08:23.460Z,1018.48
2023-05-08T08:09:23.317Z,1018.45
2023-05-08T08:10:23.335Z,1018.51
2023-05-08T08:11:23.286Z,1018.46
2023-05-08T08:12:23.254Z,1018.56
2023-05-08T08:13:23.446Z,1018.51
2023-05-08T08:14:23.259Z,1018.52
2023-05-08T08:15:23.225Z,1018.52
2023-05-08T08:16:23.854Z,1018.51
2023-05-08T08:17:23.356Z,1018.55
2023-05-08T08:18:23.218Z,1018.48
2023-05-08T08:19:23.167Z,1018.52
2023-05-08T08:20:23.242Z,1018.53
2023-05-08T08:21:23.172Z,1018.46
2023-05-08T08:22:23.136Z,1018.45
2023-05-08T08:23:23.150Z,1018.45
2023-05-08T08:24:23.099Z,1018.42
2023-05-08T08:25:23.099Z,1018.41
2023-05-08T08:26:23.093Z,1018.44
2023-05-08T08:27:23.135Z,1018.45
2023-05-08T08:28:23.053Z,1018.45
2023-05-08T08:29:23.117Z,1018.44
2023-05-08T08:30:23.115Z,1018.40
2023-05-08T08:31:23.074Z,1018.40
2023-05-08T08:32:23.061Z,1018.36
2023-05-08T08:33:22.990Z,1018.42
2023-05-08T08:34:22.970Z,1018.33
2023-05-08T08:35:22.982Z,1018.32
2023-05-08T08:36:22.945Z,1018.36
2023-05-08T08:37:22.976Z,1018.33
2023-05-08T08:38:23.110Z,1018.31
2023-05-08T08:39:22.926Z,1018.34
2023-05-08T08:40:22.947Z,1018.33
2023-05-08T08:41:22.894Z,1018.29
2023-05-08T08:42:22.903Z,1018.30
2023-05-08T08:43:22.894Z,1018.32
2023-05-08T08:44:22.875Z,1018.30
2023-05-08T08:45:22.904Z,1018.27
2023-05-08T08:46:22.868Z,1018.29
2023-05-08T08:47:22.825Z,1018.27
2023-05-08T08:48:22.775Z,1018.34
2023-05-08T08:49:22.812Z,1018.30
2023-05-08T08:50:22.801Z,1018.33
2023-05-08T08:51:22.768Z,1018.32
2023-05-08T08:52:22.746Z,1018.34
2023-05-08T08:53:22.735Z,1018.32
2023-05-08T08:54:22.719Z,1018.34
2023-05-08T08:55:22.772Z,1018.37
2023-05-08T08:56:22.683Z,1018.37
2023-05-08T08:57:22.709Z,1018.37
2023-05-08T08:58:22.704Z,1018.37
2023-05-08T08:59:22.716Z,1018.32
2023-05-08T09:00:22.661Z,1018.39
2023-05-08T09:01:22.675Z,1018.37
2023-05-08T09:02:22.892Z,1018.39
2023-05-08T09:03:22.985Z,1018.41
2023-05-08T09:04:22.795Z,1018.38
2023-05-08T09:05:22.583Z,1018.36
2023-05-08T09:06:22.559Z,1018.43
2023-05-08T09:07:22.590Z,1018.41
2023-05-08T09:08:22.552Z,1018.42
2023-05-08T09:09:22.591Z,1018.38
2023-05-08T09:10:22.488Z,1018.39
2023-05-08T09:11:22.514Z,1018.40
2023-05-08T09:12:22.506Z,1018.39
2023-05-08T09:13:22.578Z,1018.34
2023-05-08T09:14:22.511Z,1018.34
2023-05-08T09:15:22.647Z,1018.43
2023-05-08T09:16:22.523Z,1018.45
2023-05-08T09:17:22.463Z,1018.40
2023-05-08T09:18:22.466Z,1018.39
2023-05-08T09:19:24.954Z,1018.43
2023-05-08T09:20:22.372Z,1018.43
2023-05-08T09:21:22.694Z,1018.46
2023-05-08T09:22:22.423Z,1018.38
2023-05-08T09:23:22.564Z,1018.44
2023-05-08T09:24:22.436Z,1018.32
2023-05-08T09:25:22.348Z,1018.43
2023-05-08T09:26:22.292Z,1018.36
2023-05-08T09:27:22.299Z,1018.42
2023-05-08T09:28:22.254Z,1018.31
2023-05-08T09:29:22.293Z,1018.32
2023-05-08T09:30:22.248Z,1018.33
2023-05-08T09:31:22.311Z,1018.29
2023-05-08T09:32:22.329Z,1018.32
2023-05-08T09:33:22.245Z,1018.38
2023-05-08T09:34:22.173Z,1018.29
2023-05-08T09:35:22.178Z,1018.37
2023-05-08T09:36:22.134Z,1018.42
2023-05-08T09:37:22.142Z,1018.35
2023-05-08T09:38:22.138Z,1018.39
2023-05-08T09:39:22.144Z,1018.37
2023-05-08T09:40:22.285Z,1018.42
2023-05-08T09:41:22.134Z,1018.36
2023-05-08T09:42:22.100Z,1018.41
2023-05-08T09:43:22.091Z,1018.39
2023-05-08T09:44:22.061Z,1018.42
2023-05-08T09:45:22.068Z,1018.37
2023-05-08T09:46:22.147Z,1018.35
2023-05-08T09:47:22.377Z,1018.33
2023-05-08T09:48:22.021Z,1018.31
2023-05-08T09:49:22.000Z,1018.42
2023-05-08T09:50:22.022Z,1018.43
2023-05-08T09:51:22.009Z,1018.41
2023-05-08T09:52:21.982Z,1018.42
2023-05-08T09:53:21.934Z,1018.43
2023-05-08T09:54:21.908Z,1018.44
2023-05-08T09:55:21.947Z,1018.44
2023-05-08T09:56:21.891Z,1018.48
2023-05-08T09:57:21.947Z,1018.40
2023-05-08T09:58:21.867Z,1018.50
2023-05-08T09:59:21.913Z,1018.46
2023-05-08T10:00:21.900Z,1018.41
2023-05-08T10:01:21.877Z,1018.40
2023-05-08T10:02:22.060Z,1018.45
2023-05-08T10:03:22.006Z,1018.46
2023-05-08T10:04:21.881Z,1018.46
2023-05-08T10:05:21.853Z,1018.44
2023-05-08T10:06:21.819Z,1018.44
2023-05-08T10:07:21.761Z,1018.41
2023-05-08T10:08:21.731Z,1018.42
2023-05-08T10:09:21.785Z,1018.46
2023-05-08T10:10:21.727Z,1018.46
2023-05-08T10:11:21.916Z,1018.44
2023-05-08T10:12:22.649Z,1018.41
2023-05-08T10:13:21.942Z,1018.40
2023-05-08T10:14:21.700Z,1018.41
2023-05-08T10:15:21.661Z,1018.41
2023-05-08T10:16:21.646Z,1018.39
2023-05-08T10:17:21.842Z,1018.46
2023-05-08T10:18:21.594Z,1018.36
2023-05-08T10:19:21.589Z,1018.39
2023-05-08T10:20:21.891Z,1018.36
2023-05-08T10:21:21.592Z,1018.34
2023-05-08T10:22:21.570Z,1018.37
2023-05-08T10:23:21.601Z,1018.32
2023-05-08T10:24:21.556Z,1018.35
2023-05-08T10:25:21.524Z,1018.33
2023-05-08T10:26:21.703Z,1018.30
2023-05-08T10:27:21.509Z,1018.32
2023-05-08T10:28:21.502Z,1018.28
2023-05-08T10:29:21.475Z,1018.32
2023-05-08T10:30:21.492Z,1018.30
2023-05-08T10:31:21.611Z,1018.31
2023-05-08T10:32:21.477Z,1018.28
2023-05-08T10:33:21.549Z,1018.30
2023-05-08T10:34:21.395Z,1018.25
2023-05-08T10:35:21.404Z,1018.24
2023-05-08T10:36:21.392Z,1018.21
2023-05-08T10:37:21.433Z,1018.22
2023-05-08T10:38:21.391Z,1018.25
2023-05-08T10:39:21.398Z,1018.17
2023-05-08T10:40:21.459Z,1018.22
2023-05-08T10:41:21.321Z,1018.18
2023-05-08T10:42:21.320Z,1018.16
2023-05-08T10:43:21.348Z,1018.14
2023-05-08T10:44:21.285Z,1018.13
2023-05-08T10:45:21.262Z,1018.13
2023-05-08T10:46:21.264Z,1018.13
2023-05-08T10:47:21.277Z,1018.13
2023-05-08T10:48:21.277Z,1018.12
2023-05-08T10:49:21.271Z,1018.12
2023-05-08T10:50:21.207Z,1018.12
2023-05-08T10:51:21.264Z,1018.10
2023-05-08T10:52:21.220Z,1018.16
2023-05-08T10:53:21.177Z,1018.15
2023-05-08T10:54:21.154Z,1018.12
2023-05-08T10:55:21.172Z,1018.16
2023-05-08T10:56:21.177Z,1018.17
2023-05-08T10:57:21.123Z,1018.20
2023-05-08T10:58:21.855Z,1018.17
2023-05-08T10:59:22.298Z,1018.20
2023-05-08T11:00:21.136Z,1018.19
2023-05-08T11:01:21.093Z,1018.16
2023-05-08T11:02:21.049Z,1018.13
2023-05-08T11:03:30.564Z,1018.17
2023-05-08T11:04:22.129Z,1018.14
2023-05-08T11:05:21.005Z,1018.12
2023-05-08T11:06:21.026Z,1018.16
2023-05-08T11:07:21.006Z,1018.17
2023-05-08T11:08:20.971Z,1018.16
2023-05-08T11:09:21.046Z,1018.14
2023-05-08T11:10:20.933Z,1018.15
2023-05-08T11:11:20.945Z,1018.12
2023-05-08T11:12:20.935Z,1018.15
2023-05-08T11:13:20.971Z,1018.14
2023-05-08T11:14:20.876Z,1018.13
2023-05-08T11:15:20.915Z,1018.10
2023-05-08T11:16:20.896Z,1018.07
2023-05-08T11:17:20.870Z,1018.12
2023-05-08T11:18:20.839Z,1018.08
2023-05-08T11:19:20.841Z,1018.12
2023-05-08T11:20:20.852Z,1018.10
2023-05-08T11:21:20.777Z,1018.09
2023-05-08T11:22:20.770Z,1018.10
2023-05-08T11:23:20.825Z,1018.04
2023-05-08T11:24:20.737Z,1018.06
2023-05-08T11:25:20.752Z,1018.10
2023-05-08T11:26:20.699Z,1018.14
2023-05-08T11:27:20.739Z,1018.07
2023-05-08T11:28:20.746Z,1018.04
2023-05-08T11:29:20.698Z,1018.07
2023-05-08T11:30:20.642Z,1018.06
2023-05-08T11:31:20.700Z,1018.05
2023-05-08T11:32:20.670Z,1018.05
2023-05-08T11:33:20.604Z,1018.01
2023-05-08T11:34:20.708Z,1018.07
2023-05-08T11:35:20.644Z,1018.05
2023-05-08T11:36:20.582Z,1018.04
2023-05-08T11:37:20.588Z,1018.04
2023-05-08T11:38:20.612Z,1018.07
2023-05-08T11:39:20.584Z,1017.99
2023-05-08T11:40:20.562Z,1018.00
2023-05-08T11:41:20.521Z,1018.01
2023-05-08T11:42:20.576Z,1018.04
2023-05-08T11:43:20.502Z,1018.03
2023-05-08T11:44:20.676Z,1018.01
2023-05-08T11:45:20.516Z,1018.03
2023-05-08T11:46:20.519Z,1018.03
2023-05-08T11:47:20.558Z,1018.01
2023-05-08T11:48:20.447Z,1018.03
2023-05-08T11:49:24.719Z,1018.08
2023-05-08T11:51:19.685Z,1018.01
2023-05-08T11:52:19.665Z,1018.03
2023-05-08T11:53:20.087Z,1018.11
2023-05-08T11:54:19.664Z,1018.09
2023-05-08T11:55:19.685Z,1018.07
2023-05-08T11:56:19.616Z,1018.04
2023-05-08T11:57:19.640Z,1018.07
2023-05-08T11:58:19.857Z,1018.05
2023-05-08T11:59:19.579Z,1018.07
2023-05-08T12:00:19.683Z,1018.05
2023-05-08T12:01:19.590Z,1018.08
2023-05-08T12:02:19.591Z,1018.02
2023-05-08T12:03:19.686Z,1018.02
2023-05-08T12:04:19.742Z,1018.00
2023-05-08T12:05:19.521Z,1018.06
2023-05-08T12:06:19.527Z,1018.10